Buffalo, WY

3:49 AM MDT on August 29, 2014 (GMT -0600)
Johnson County | Change Station
CLOSE
Current Station
Airport
Location: Buffalo,
Elevation: 4967 ft
Nearby Weather Stations

Elev 4967 ft 44.38 °N, 106.72 °W | Updated 56 minutes ago

Partly Cloudy
Partly Cloudy
64 °F
Feels Like 64 °F
N
16
Wind Variable Wind from NNW
Gusts 26 mph

Today
High -- | Low -- °F
--% Chance of Precip.
Yesterday
High -- | Low -- °F
Precip. -- in
6:26 AM 7:48 PM
Waxing Crescent, 13% visible
Pressure 29.86 in
Visibility 10.0 miles
Clouds Few 11000 ft
Dew Point 47 °F
Humidity 54%
Rainfall 0.00 in
Snow Depth 1 in , 0 in
UV 0 out of 12
Pollen 8.50 out of 12
Air Quality Not available.
Flu Activity Not available.
METAR KBYG 290853Z AUTO 33014G23KT 10SM FEW110 18/08 A3005 RMK AO2 LTG DSNT NE SLP112 T01780083 53006

More Conditions Fewer Conditions

Pressure 29.86 in
Visibility 10.0 miles
Clouds Few 11000 ft
Dew Point 47 °F
Humidity 54%
Rainfall 0.00 in
Snow Depth 1 in , 0 in
UV 0 out of 12
Pollen 8.50 out of 12
Air Quality Not available.
Flu Activity Not available.
METAR KBYG 290853Z AUTO 33014G23KT 10SM FEW110 18/08 A3005 RMK AO2 LTG DSNT NE SLP112 T01780083 53006

More Conditions Fewer Conditions

10-Day Weather Forecast

Almanac

Astronomy

Aug. 29, 2014 Rise Set
Actual Time 6:26 AM MDT 7:48 PM MDT
Civil Twilight 5:56 AM MDT 8:18 PM MDT
Nautical Twilight 5:19 AM MDT 8:54 PM MDT
Astronomical Twilight 4:40 AM MDT 9:33 PM MDT
Moon 10:28 AM MDT 9:36 PM MDT
Length of Visible Light 14h 22m
Length of Day
13h 22m
Tomorrow will be 2m 55s shorter.
Waxing Crescent, 13% of the Moon is Illuminated
Today
Waxing Crescent
Sep 2
First Quarter
Sep 8
Full
Sep 15
Last Quarter
Sep 24
New

Today's Extremes

State Highs State Lows

Community

WunderPhotos

Upload Photos

1,748,207 photos uploaded!

Nearby

Snow Depth

Station Depth Elevation
Hansen Sawmill 1 in 8360 ft
Cloud Peak Reservoir 0 in 9860 ft
Powder River Pass 0 in 9480 ft
Big Goose 0 in 7990 ft
Dome Lake 0 in 8880 ft

Earthquake Activity

City Distance Mag. Time & Date
No recent earthquake activity has been reported nearby.
Minimum magnitude displayed is 2.5.

Coastal Water Temperatures

Place Temperature
No Stations Reporting

Nearby Weather Stations